UMMS/MSQ METAR and TAF weather

Enter ICAO airport designator
Station Type Date Time Source
UMMS METAR 2021/03/08 12:00 UTC NOAA

UMMS 081200Z 34006G09MPS 9999 BKN038CB M03/M10 Q1009 R31R/520545 R31L/////// NOSIG


Station Type Date Time Source
UMMS Decoded METAR 2021/03/08 12:00 UTC NOAA

Minsk, Belarus (UMMS) 53-56N 027-38E 231M
Mar 08, 2021 - 07:00 AM EST / 2021.03.08 1200 UTC
Wind: from the NNW (340 degrees) at 13 MPH (12 KT) gusting to 20 MPH (17 KT):0
Visibility: greater than 7 mile(s):0
Sky conditions: mostly cloudy
Weather: Cumulonimbus clouds observed
Temperature: 26 F (-3 C)
Windchill: 14 F (-10 C):1
Dew Point: 14 F (-10 C)
Relative Humidity: 58%
Pressure (altimeter): 29.80 in. Hg (1009 hPa)
ob: UMMS 081200Z 34006G09MPS 9999 BKN038CB M03/M10 Q1009 R31R/520545 R31L/////// NOSIG
cycle: 12

Station Type Date Time Source
UMMS TAF 2021/03/08 12:21 UTC NOAA

TAF TAF UMMS 081107Z 0812/0912 33006G11MPS 9999 BKN010
TEMPO 0812/0817 35011G16MPS 0500 +SHSN BLSN OVC003 BKN015CB
BECMG 0817/0818 34006MPS
TEMPO 0818/0912 1200 SHSN BKN003 BKN015CB

Example: see airport list